sensor_id;sensor_type;location;lat;lon;timestamp;P1;durP1;ratioP1;P2;durP2;ratioP2
80981;SDS011;70440;53.064;8.926;2023-10-13T00:02:00;1.17;;;0.85;;
80981;SDS011;70440;53.064;8.926;2023-10-13T00:04:33;0.90;;;0.80;;
80981;SDS011;70440;53.064;8.926;2023-10-13T00:07:05;1.48;;;0.82;;
80981;SDS011;70440;53.064;8.926;2023-10-13T00:09:34;1.38;;;1.10;;
80981;SDS011;70440;53.064;8.926;2023-10-13T00:12:02;1.67;;;1.05;;
80981;SDS011;70440;53.064;8.926;2023-10-13T00:14:30;1.05;;;0.90;;
80981;SDS011;70440;53.064;8.926;2023-10-13T00:17:08;1.65;;;1.25;;
80981;SDS011;70440;53.064;8.926;2023-10-13T00:19:36;1.60;;;1.20;;
80981;SDS011;70440;53.064;8.926;2023-10-13T00:22:20;1.58;;;1.10;;
80981;SDS011;70440;53.064;8.926;2023-10-13T00:24:50;0.80;;;0.80;;
80981;SDS011;70440;53.064;8.926;2023-10-13T00:27:17;1.33;;;1.15;;
80981;SDS011;70440;53.064;8.926;2023-10-13T00:30:00;0.95;;;0.85;;
80981;SDS011;70440;53.064;8.926;2023-10-13T00:32:42;1.25;;;1.15;;
80981;SDS011;70440;53.064;8.926;2023-10-13T00:35:31;1.65;;;1.17;;
80981;SDS011;70440;53.064;8.926;2023-10-13T00:38:07;1.05;;;0.95;;
80981;SDS011;70440;53.064;8.926;2023-10-13T00:40:38;2.45;;;1.40;;
80981;SDS011;70440;53.064;8.926;2023-10-13T00:43:22;1.20;;;0.90;;
80981;SDS011;70440;53.064;8.926;2023-10-13T00:45:50;1.88;;;1.77;;
80981;SDS011;70440;53.064;8.926;2023-10-13T00:48:32;1.23;;;1.13;;
80981;SDS011;70440;53.064;8.926;2023-10-13T00:51:06;1.10;;;1.00;;
80981;SDS011;70440;53.064;8.926;2023-10-13T00:53:41;1.00;;;0.73;;
80981;SDS011;70440;53.064;8.926;2023-10-13T00:56:09;1.20;;;1.02;;
80981;SDS011;70440;53.064;8.926;2023-10-13T00:58:44;1.92;;;1.00;;
80981;SDS011;70440;53.064;8.926;2023-10-13T01:01:11;1.85;;;1.65;;
80981;SDS011;70440;53.064;8.926;2023-10-13T01:03:46;1.20;;;1.10;;
80981;SDS011;70440;53.064;8.926;2023-10-13T01:06:14;1.25;;;1.15;;
80981;SDS011;70440;53.064;8.926;2023-10-13T01:08:41;2.97;;;1.95;;
80981;SDS011;70440;53.064;8.926;2023-10-13T01:11:09;2.25;;;1.35;;
80981;SDS011;70440;53.064;8.926;2023-10-13T01:13:35;0.95;;;0.80;;
80981;SDS011;70440;53.064;8.926;2023-10-13T01:16:02;1.20;;;1.00;;
80981;SDS011;70440;53.064;8.926;2023-10-13T01:18:29;1.77;;;1.10;;
80981;SDS011;70440;53.064;8.926;2023-10-13T01:20:54;1.48;;;1.10;;
80981;SDS011;70440;53.064;8.926;2023-10-13T01:23:24;1.25;;;1.10;;
80981;SDS011;70440;53.064;8.926;2023-10-13T01:25:53;1.95;;;1.40;;
80981;SDS011;70440;53.064;8.926;2023-10-13T01:28:19;1.10;;;1.00;;
80981;SDS011;70440;53.064;8.926;2023-10-13T01:30:47;1.58;;;1.48;;
80981;SDS011;70440;53.064;8.926;2023-10-13T01:33:16;1.20;;;1.00;;
80981;SDS011;70440;53.064;8.926;2023-10-13T01:35:42;2.28;;;1.45;;
80981;SDS011;70440;53.064;8.926;2023-10-13T01:38:12;2.72;;;1.88;;
80981;SDS011;70440;53.064;8.926;2023-10-13T01:40:40;1.85;;;1.55;;
80981;SDS011;70440;53.064;8.926;2023-10-13T01:43:07;1.17;;;1.08;;
80981;SDS011;70440;53.064;8.926;2023-10-13T01:45:36;1.25;;;1.10;;
80981;SDS011;70440;53.064;8.926;2023-10-13T01:48:04;1.92;;;1.60;;
80981;SDS011;70440;53.064;8.926;2023-10-13T01:50:29;1.60;;;1.45;;
80981;SDS011;70440;53.064;8.926;2023-10-13T01:52:55;1.33;;;1.23;;
80981;SDS011;70440;53.064;8.926;2023-10-13T01:55:42;1.25;;;1.15;;
80981;SDS011;70440;53.064;8.926;2023-10-13T01:58:14;1.92;;;1.38;;
80981;SDS011;70440;53.064;8.926;2023-10-13T02:00:43;2.33;;;2.13;;
80981;SDS011;70440;53.064;8.926;2023-10-13T02:03:16;2.45;;;1.88;;
80981;SDS011;70440;53.064;8.926;2023-10-13T02:05:45;1.10;;;0.82;;
80981;SDS011;70440;53.064;8.926;2023-10-13T02:08:19;1.30;;;1.10;;
80981;SDS011;70440;53.064;8.926;2023-10-13T02:10:49;1.55;;;1.13;;
80981;SDS011;70440;53.064;8.926;2023-10-13T02:13:22;1.60;;;1.27;;
80981;SDS011;70440;53.064;8.926;2023-10-13T02:15:52;2.28;;;1.60;;
80981;SDS011;70440;53.064;8.926;2023-10-13T02:18:19;1.20;;;0.90;;
80981;SDS011;70440;53.064;8.926;2023-10-13T02:21:02;2.97;;;1.92;;
80981;SDS011;70440;53.064;8.926;2023-10-13T02:23:29;3.08;;;1.83;;
80981;SDS011;70440;53.064;8.926;2023-10-13T02:25:55;1.52;;;1.40;;
80981;SDS011;70440;53.064;8.926;2023-10-13T02:29:00;1.40;;;1.23;;
80981;SDS011;70440;53.064;8.926;2023-10-13T02:31:32;2.33;;;1.70;;
80981;SDS011;70440;53.064;8.926;2023-10-13T02:33:59;1.40;;;1.10;;
80981;SDS011;70440;53.064;8.926;2023-10-13T02:36:28;1.17;;;1.08;;
80981;SDS011;70440;53.064;8.926;2023-10-13T02:39:05;2.20;;;1.58;;
80981;SDS011;70440;53.064;8.926;2023-10-13T02:41:34;1.58;;;1.20;;
80981;SDS011;70440;53.064;8.926;2023-10-13T02:44:03;1.25;;;0.93;;
80981;SDS011;70440;53.064;8.926;2023-10-13T02:46:36;1.60;;;1.50;;
80981;SDS011;70440;53.064;8.926;2023-10-13T02:49:04;2.08;;;1.88;;
80981;SDS011;70440;53.064;8.926;2023-10-13T02:51:39;1.55;;;1.25;;
80981;SDS011;70440;53.064;8.926;2023-10-13T02:54:07;1.20;;;1.10;;
80981;SDS011;70440;53.064;8.926;2023-10-13T02:56:36;2.10;;;1.42;;
80981;SDS011;70440;53.064;8.926;2023-10-13T02:59:14;2.03;;;1.48;;
80981;SDS011;70440;53.064;8.926;2023-10-13T03:01:40;2.03;;;1.73;;
80981;SDS011;70440;53.064;8.926;2023-10-13T03:04:05;1.65;;;1.40;;
80981;SDS011;70440;53.064;8.926;2023-10-13T03:06:36;1.35;;;1.17;;
80981;SDS011;70440;53.064;8.926;2023-10-13T03:09:07;2.15;;;1.63;;
80981;SDS011;70440;53.064;8.926;2023-10-13T03:11:52;2.90;;;2.10;;
80981;SDS011;70440;53.064;8.926;2023-10-13T03:14:30;2.05;;;1.85;;
80981;SDS011;70440;53.064;8.926;2023-10-13T03:19:31;2.15;;;1.95;;
80981;SDS011;70440;53.064;8.926;2023-10-13T03:22:09;2.53;;;1.80;;
80981;SDS011;70440;53.064;8.926;2023-10-13T03:24:43;2.42;;;1.77;;
80981;SDS011;70440;53.064;8.926;2023-10-13T03:27:12;1.73;;;1.50;;
80981;SDS011;70440;53.064;8.926;2023-10-13T03:30:25;3.15;;;2.22;;
80981;SDS011;70440;53.064;8.926;2023-10-13T03:33:01;3.30;;;2.38;;
80981;SDS011;70440;53.064;8.926;2023-10-13T03:35:38;1.63;;;1.25;;
80981;SDS011;70440;53.064;8.926;2023-10-13T03:38:15;1.85;;;1.50;;
80981;SDS011;70440;53.064;8.926;2023-10-13T03:40:46;1.98;;;1.63;;
80981;SDS011;70440;53.064;8.926;2023-10-13T03:43:33;1.75;;;1.23;;
80981;SDS011;70440;53.064;8.926;2023-10-13T03:46:09;1.25;;;1.15;;
80981;SDS011;70440;53.064;8.926;2023-10-13T03:48:35;1.52;;;1.40;;
80981;SDS011;70440;53.064;8.926;2023-10-13T03:51:24;5.25;;;1.77;;
80981;SDS011;70440;53.064;8.926;2023-10-13T03:53:55;1.92;;;1.50;;
80981;SDS011;70440;53.064;8.926;2023-10-13T03:56:22;1.67;;;1.40;;
80981;SDS011;70440;53.064;8.926;2023-10-13T03:59:03;1.60;;;1.20;;
80981;SDS011;70440;53.064;8.926;2023-10-13T04:01:44;1.90;;;1.73;;
80981;SDS011;70440;53.064;8.926;2023-10-13T04:04:27;1.50;;;1.25;;
80981;SDS011;70440;53.064;8.926;2023-10-13T04:09:43;2.83;;;2.30;;
80981;SDS011;70440;53.064;8.926;2023-10-13T04:12:23;4.20;;;1.33;;
80981;SDS011;70440;53.064;8.926;2023-10-13T04:15:07;3.28;;;1.70;;
80981;SDS011;70440;53.064;8.926;2023-10-13T04:17:48;1.70;;;1.58;;
80981;SDS011;70440;53.064;8.926;2023-10-13T04:20:18;1.40;;;1.30;;
80981;SDS011;70440;53.064;8.926;2023-10-13T04:23:03;1.88;;;1.13;;
80981;SDS011;70440;53.064;8.926;2023-10-13T04:25:48;1.60;;;1.50;;
80981;SDS011;70440;53.064;8.926;2023-10-13T04:28:16;1.70;;;1.13;;
80981;SDS011;70440;53.064;8.926;2023-10-13T04:31:02;1.65;;;1.45;;
80981;SDS011;70440;53.064;8.926;2023-10-13T04:33:39;2.13;;;1.75;;
80981;SDS011;70440;53.064;8.926;2023-10-13T04:36:30;1.52;;;1.20;;
80981;SDS011;70440;53.064;8.926;2023-10-13T04:38:58;1.52;;;1.30;;
80981;SDS011;70440;53.064;8.926;2023-10-13T04:41:30;2.30;;;1.20;;
80981;SDS011;70440;53.064;8.926;2023-10-13T04:44:02;1.15;;;1.02;;
80981;SDS011;70440;53.064;8.926;2023-10-13T04:47:00;1.55;;;1.38;;
80981;SDS011;70440;53.064;8.926;2023-10-13T04:49:30;1.35;;;1.25;;
80981;SDS011;70440;53.064;8.926;2023-10-13T04:52:13;1.75;;;1.35;;
80981;SDS011;70440;53.064;8.926;2023-10-13T04:54:57;1.52;;;1.35;;
80981;SDS011;70440;53.064;8.926;2023-10-13T04:57:35;1.70;;;1.55;;
80981;SDS011;70440;53.064;8.926;2023-10-13T05:00:14;2.05;;;1.20;;
80981;SDS011;70440;53.064;8.926;2023-10-13T05:02:43;2.15;;;1.95;;
80981;SDS011;70440;53.064;8.926;2023-10-13T05:05:24;1.83;;;1.15;;
80981;SDS011;70440;53.064;8.926;2023-10-13T05:07:50;2.60;;;1.98;;
80981;SDS011;70440;53.064;8.926;2023-10-13T05:10:34;5.70;;;3.25;;
80981;SDS011;70440;53.064;8.926;2023-10-13T05:13:18;3.03;;;1.88;;
80981;SDS011;70440;53.064;8.926;2023-10-13T05:16:02;1.70;;;1.50;;
80981;SDS011;70440;53.064;8.926;2023-10-13T05:18:46;1.85;;;1.13;;
80981;SDS011;70440;53.064;8.926;2023-10-13T05:21:30;1.70;;;1.30;;
80981;SDS011;70440;53.064;8.926;2023-10-13T05:24:17;2.35;;;2.15;;
80981;SDS011;70440;53.064;8.926;2023-10-13T05:27:01;2.13;;;1.92;;
80981;SDS011;70440;53.064;8.926;2023-10-13T05:29:45;1.50;;;1.40;;
80981;SDS011;70440;53.064;8.926;2023-10-13T05:32:30;1.70;;;1.30;;
80981;SDS011;70440;53.064;8.926;2023-10-13T05:35:14;1.65;;;1.50;;
80981;SDS011;70440;53.064;8.926;2023-10-13T05:37:59;3.13;;;2.42;;
80981;SDS011;70440;53.064;8.926;2023-10-13T05:40:56;3.65;;;2.22;;
80981;SDS011;70440;53.064;8.926;2023-10-13T05:43:40;2.15;;;1.65;;
80981;SDS011;70440;53.064;8.926;2023-10-13T05:46:24;2.83;;;2.10;;
80981;SDS011;70440;53.064;8.926;2023-10-13T05:48:50;2.53;;;2.10;;
80981;SDS011;70440;53.064;8.926;2023-10-13T05:54:11;2.55;;;2.33;;
80981;SDS011;70440;53.064;8.926;2023-10-13T05:56:43;2.30;;;1.95;;
80981;SDS011;70440;53.064;8.926;2023-10-13T05:59:31;2.50;;;2.13;;
80981;SDS011;70440;53.064;8.926;2023-10-13T06:02:19;1.92;;;1.73;;
80981;SDS011;70440;53.064;8.926;2023-10-13T06:05:07;2.75;;;2.30;;
80981;SDS011;70440;53.064;8.926;2023-10-13T06:08:01;2.03;;;1.60;;
80981;SDS011;70440;53.064;8.926;2023-10-13T06:10:45;2.08;;;1.85;;
80981;SDS011;70440;53.064;8.926;2023-10-13T06:13:30;2.60;;;1.75;;
80981;SDS011;70440;53.064;8.926;2023-10-13T06:16:15;2.30;;;1.85;;
80981;SDS011;70440;53.064;8.926;2023-10-13T06:18:59;2.40;;;1.60;;
80981;SDS011;70440;53.064;8.926;2023-10-13T06:21:47;1.77;;;1.33;;
80981;SDS011;70440;53.064;8.926;2023-10-13T06:24:31;3.45;;;1.98;;
80981;SDS011;70440;53.064;8.926;2023-10-13T06:27:15;3.15;;;2.53;;
80981;SDS011;70440;53.064;8.926;2023-10-13T06:29:59;2.42;;;2.17;;
80981;SDS011;70440;53.064;8.926;2023-10-13T06:32:26;3.17;;;2.40;;
80981;SDS011;70440;53.064;8.926;2023-10-13T06:34:57;2.45;;;2.10;;
80981;SDS011;70440;53.064;8.926;2023-10-13T06:37:35;2.38;;;1.65;;
80981;SDS011;70440;53.064;8.926;2023-10-13T06:40:13;1.77;;;1.45;;
80981;SDS011;70440;53.064;8.926;2023-10-13T06:42:53;2.50;;;2.30;;
80981;SDS011;70440;53.064;8.926;2023-10-13T06:45:26;1.85;;;1.60;;
80981;SDS011;70440;53.064;8.926;2023-10-13T06:47:56;2.45;;;2.05;;
80981;SDS011;70440;53.064;8.926;2023-10-13T06:50:23;2.40;;;1.58;;
80981;SDS011;70440;53.064;8.926;2023-10-13T06:52:53;1.77;;;1.60;;
80981;SDS011;70440;53.064;8.926;2023-10-13T06:55:19;2.35;;;1.27;;
80981;SDS011;70440;53.064;8.926;2023-10-13T06:58:00;2.30;;;1.65;;
80981;SDS011;70440;53.064;8.926;2023-10-13T07:00:25;2.28;;;2.08;;
80981;SDS011;70440;53.064;8.926;2023-10-13T07:03:03;2.30;;;2.03;;
80981;SDS011;70440;53.064;8.926;2023-10-13T07:05:35;1.75;;;1.60;;
80981;SDS011;70440;53.064;8.926;2023-10-13T07:08:04;1.70;;;1.60;;
80981;SDS011;70440;53.064;8.926;2023-10-13T07:10:30;1.58;;;1.48;;
80981;SDS011;70440;53.064;8.926;2023-10-13T07:13:15;1.90;;;1.70;;
80981;SDS011;70440;53.064;8.926;2023-10-13T07:15:47;1.65;;;1.50;;
80981;SDS011;70440;53.064;8.926;2023-10-13T07:18:16;2.10;;;1.90;;
80981;SDS011;70440;53.064;8.926;2023-10-13T07:20:47;1.67;;;1.55;;
80981;SDS011;70440;53.064;8.926;2023-10-13T07:23:17;1.65;;;1.42;;
80981;SDS011;70440;53.064;8.926;2023-10-13T07:25:43;5.10;;;3.33;;
80981;SDS011;70440;53.064;8.926;2023-10-13T07:28:16;2.05;;;1.65;;
80981;SDS011;70440;53.064;8.926;2023-10-13T07:30:48;2.13;;;1.67;;
80981;SDS011;70440;53.064;8.926;2023-10-13T07:33:25;1.55;;;1.45;;
80981;SDS011;70440;53.064;8.926;2023-10-13T07:36:04;1.17;;;1.08;;
80981;SDS011;70440;53.064;8.926;2023-10-13T07:41:43;2.53;;;1.90;;
80981;SDS011;70440;53.064;8.926;2023-10-13T07:44:12;1.52;;;1.42;;
80981;SDS011;70440;53.064;8.926;2023-10-13T07:46:38;1.75;;;1.50;;
80981;SDS011;70440;53.064;8.926;2023-10-13T07:49:06;1.55;;;1.45;;
80981;SDS011;70440;53.064;8.926;2023-10-13T07:51:37;1.10;;;0.93;;
80981;SDS011;70440;53.064;8.926;2023-10-13T07:54:31;1.92;;;1.40;;
80981;SDS011;70440;53.064;8.926;2023-10-13T07:56:59;1.60;;;1.02;;
80981;SDS011;70440;53.064;8.926;2023-10-13T07:59:24;1.17;;;0.80;;
80981;SDS011;70440;53.064;8.926;2023-10-13T08:01:50;1.60;;;1.50;;
80981;SDS011;70440;53.064;8.926;2023-10-13T08:04:41;1.85;;;1.50;;
80981;SDS011;70440;53.064;8.926;2023-10-13T08:07:07;1.30;;;1.20;;
80981;SDS011;70440;53.064;8.926;2023-10-13T08:09:41;1.25;;;0.98;;
80981;SDS011;70440;53.064;8.926;2023-10-13T08:12:08;1.20;;;0.77;;
80981;SDS011;70440;53.064;8.926;2023-10-13T08:14:49;0.90;;;0.70;;
80981;SDS011;70440;53.064;8.926;2023-10-13T08:17:24;0.93;;;0.80;;
80981;SDS011;70440;53.064;8.926;2023-10-13T08:19:56;1.52;;;0.90;;
80981;SDS011;70440;53.064;8.926;2023-10-13T08:22:27;1.52;;;1.13;;
80981;SDS011;70440;53.064;8.926;2023-10-13T08:25:06;1.00;;;0.95;;
80981;SDS011;70440;53.064;8.926;2023-10-13T08:27:51;1.02;;;0.93;;
80981;SDS011;70440;53.064;8.926;2023-10-13T08:30:54;1.73;;;0.80;;
80981;SDS011;70440;53.064;8.926;2023-10-13T08:33:21;0.95;;;0.70;;
80981;SDS011;70440;53.064;8.926;2023-10-13T08:35:51;1.65;;;1.00;;
80981;SDS011;70440;53.064;8.926;2023-10-13T08:38:24;1.10;;;0.98;;
80981;SDS011;70440;53.064;8.926;2023-10-13T08:41:00;1.98;;;1.25;;
80981;SDS011;70440;53.064;8.926;2023-10-13T08:43:40;0.68;;;0.68;;
80981;SDS011;70440;53.064;8.926;2023-10-13T08:46:21;0.60;;;0.60;;
80981;SDS011;70440;53.064;8.926;2023-10-13T08:48:57;0.73;;;0.70;;
80981;SDS011;70440;53.064;8.926;2023-10-13T08:51:34;1.98;;;0.63;;
80981;SDS011;70440;53.064;8.926;2023-10-13T08:54:13;0.93;;;0.77;;
80981;SDS011;70440;53.064;8.926;2023-10-13T08:57:02;1.95;;;0.75;;
80981;SDS011;70440;53.064;8.926;2023-10-13T08:59:55;0.90;;;0.80;;
80981;SDS011;70440;53.064;8.926;2023-10-13T09:02:20;0.73;;;0.60;;
80981;SDS011;70440;53.064;8.926;2023-10-13T09:05:10;0.65;;;0.60;;
80981;SDS011;70440;53.064;8.926;2023-10-13T09:07:57;0.93;;;0.63;;
80981;SDS011;70440;53.064;8.926;2023-10-13T09:10:33;1.27;;;0.50;;
80981;SDS011;70440;53.064;8.926;2023-10-13T09:12:58;0.50;;;0.50;;
80981;SDS011;70440;53.064;8.926;2023-10-13T09:15:34;0.52;;;0.52;;
80981;SDS011;70440;53.064;8.926;2023-10-13T09:18:27;1.02;;;0.40;;
80981;SDS011;70440;53.064;8.926;2023-10-13T09:21:37;0.77;;;0.60;;
80981;SDS011;70440;53.064;8.926;2023-10-13T09:24:08;1.63;;;0.70;;
80981;SDS011;70440;53.064;8.926;2023-10-13T09:26:55;1.17;;;0.63;;
80981;SDS011;70440;53.064;8.926;2023-10-13T09:29:21;1.10;;;0.80;;
80981;SDS011;70440;53.064;8.926;2023-10-13T09:31:59;0.68;;;0.68;;
80981;SDS011;70440;53.064;8.926;2023-10-13T09:34:40;0.50;;;0.50;;
80981;SDS011;70440;53.064;8.926;2023-10-13T09:37:18;1.38;;;0.75;;
80981;SDS011;70440;53.064;8.926;2023-10-13T09:39:46;0.65;;;0.65;;
80981;SDS011;70440;53.064;8.926;2023-10-13T09:42:17;0.80;;;0.77;;
80981;SDS011;70440;53.064;8.926;2023-10-13T09:44:46;0.95;;;0.50;;
80981;SDS011;70440;53.064;8.926;2023-10-13T09:47:23;0.60;;;0.60;;
80981;SDS011;70440;53.064;8.926;2023-10-13T09:49:55;1.38;;;0.70;;
80981;SDS011;70440;53.064;8.926;2023-10-13T09:57:37;0.50;;;0.50;;
80981;SDS011;70440;53.064;8.926;2023-10-13T10:00:19;0.70;;;0.70;;
80981;SDS011;70440;53.064;8.926;2023-10-13T10:03:12;0.60;;;0.60;;
80981;SDS011;70440;53.064;8.926;2023-10-13T10:08:30;1.05;;;0.80;;
80981;SDS011;70440;53.064;8.926;2023-10-13T10:17:26;1.30;;;1.13;;
80981;SDS011;70440;53.064;8.926;2023-10-13T10:19:49;0.60;;;0.60;;
80981;SDS011;70440;53.064;8.926;2023-10-13T10:25:30;1.70;;;0.70;;
80981;SDS011;70440;53.064;8.926;2023-10-13T10:28:18;0.85;;;0.68;;
80981;SDS011;70440;53.064;8.926;2023-10-13T10:30:47;1.15;;;0.80;;
80981;SDS011;70440;53.064;8.926;2023-10-13T10:33:13;1.40;;;1.10;;
80981;SDS011;70440;53.064;8.926;2023-10-13T10:35:42;1.10;;;0.88;;
80981;SDS011;70440;53.064;8.926;2023-10-13T10:38:17;1.55;;;1.08;;
80981;SDS011;70440;53.064;8.926;2023-10-13T10:40:53;1.38;;;0.75;;
80981;SDS011;70440;53.064;8.926;2023-10-13T10:43:35;0.50;;;0.50;;
80981;SDS011;70440;53.064;8.926;2023-10-13T10:46:18;2.35;;;1.13;;
80981;SDS011;70440;53.064;8.926;2023-10-13T10:48:50;1.40;;;1.10;;
80981;SDS011;70440;53.064;8.926;2023-10-13T10:51:21;0.88;;;0.80;;
80981;SDS011;70440;53.064;8.926;2023-10-13T10:53:48;1.15;;;0.90;;
80981;SDS011;70440;53.064;8.926;2023-10-13T10:56:16;1.50;;;1.10;;
80981;SDS011;70440;53.064;8.926;2023-10-13T10:58:45;0.70;;;0.50;;
80981;SDS011;70440;53.064;8.926;2023-10-13T11:01:11;1.35;;;1.17;;
80981;SDS011;70440;53.064;8.926;2023-10-13T11:03:52;2.30;;;1.00;;
80981;SDS011;70440;53.064;8.926;2023-10-13T11:06:49;0.70;;;0.70;;
80981;SDS011;70440;53.064;8.926;2023-10-13T11:12:12;1.13;;;0.88;;
80981;SDS011;70440;53.064;8.926;2023-10-13T11:17:58;2.40;;;1.20;;
80981;SDS011;70440;53.064;8.926;2023-10-13T11:20:23;1.63;;;1.08;;
80981;SDS011;70440;53.064;8.926;2023-10-13T11:23:14;1.25;;;0.98;;
80981;SDS011;70440;53.064;8.926;2023-10-13T11:25:40;1.15;;;0.90;;
80981;SDS011;70440;53.064;8.926;2023-10-13T11:28:17;0.93;;;0.70;;
80981;SDS011;70440;53.064;8.926;2023-10-13T11:30:47;1.70;;;0.70;;
80981;SDS011;70440;53.064;8.926;2023-10-13T11:33:16;1.83;;;0.77;;
80981;SDS011;70440;53.064;8.926;2023-10-13T11:36:05;1.15;;;0.80;;
80981;SDS011;70440;53.064;8.926;2023-10-13T11:38:39;1.88;;;1.10;;
80981;SDS011;70440;53.064;8.926;2023-10-13T11:41:05;1.23;;;0.80;;
80981;SDS011;70440;53.064;8.926;2023-10-13T11:43:36;0.70;;;0.70;;
80981;SDS011;70440;53.064;8.926;2023-10-13T11:46:09;0.82;;;0.70;;
80981;SDS011;70440;53.064;8.926;2023-10-13T11:48:40;2.90;;;1.00;;
80981;SDS011;70440;53.064;8.926;2023-10-13T11:51:07;1.65;;;0.90;;
80981;SDS011;70440;53.064;8.926;2023-10-13T11:53:57;2.05;;;0.60;;
80981;SDS011;70440;53.064;8.926;2023-10-13T11:56:28;1.23;;;0.77;;
80981;SDS011;70440;53.064;8.926;2023-10-13T11:58:56;1.33;;;1.02;;
80981;SDS011;70440;53.064;8.926;2023-10-13T12:01:26;2.72;;;0.93;;
80981;SDS011;70440;53.064;8.926;2023-10-13T12:04:12;1.92;;;0.98;;
80981;SDS011;70440;53.064;8.926;2023-10-13T12:07:02;1.65;;;0.80;;
80981;SDS011;70440;53.064;8.926;2023-10-13T12:09:51;1.45;;;0.95;;
80981;SDS011;70440;53.064;8.926;2023-10-13T12:12:32;1.48;;;0.82;;
80981;SDS011;70440;53.064;8.926;2023-10-13T12:15:05;2.20;;;1.13;;
80981;SDS011;70440;53.064;8.926;2023-10-13T12:17:50;2.63;;;0.80;;
80981;SDS011;70440;53.064;8.926;2023-10-13T12:20:21;2.03;;;1.00;;
80981;SDS011;70440;53.064;8.926;2023-10-13T12:23:07;1.08;;;0.60;;
80981;SDS011;70440;53.064;8.926;2023-10-13T12:25:46;1.75;;;0.75;;
80981;SDS011;70440;53.064;8.926;2023-10-13T12:28:22;1.10;;;0.73;;
80981;SDS011;70440;53.064;8.926;2023-10-13T12:30:54;1.08;;;0.80;;
80981;SDS011;70440;53.064;8.926;2023-10-13T12:33:22;1.00;;;0.90;;
80981;SDS011;70440;53.064;8.926;2023-10-13T12:35:55;1.10;;;0.90;;
80981;SDS011;70440;53.064;8.926;2023-10-13T12:38:45;1.30;;;1.20;;
80981;SDS011;70440;53.064;8.926;2023-10-13T12:41:13;1.33;;;0.90;;
80981;SDS011;70440;53.064;8.926;2023-10-13T12:43:57;1.05;;;0.95;;
80981;SDS011;70440;53.064;8.926;2023-10-13T12:46:47;1.67;;;1.05;;
80981;SDS011;70440;53.064;8.926;2023-10-13T12:49:35;1.52;;;1.23;;
80981;SDS011;70440;53.064;8.926;2023-10-13T12:52:12;1.30;;;0.90;;
80981;SDS011;70440;53.064;8.926;2023-10-13T12:54:44;2.25;;;0.88;;
80981;SDS011;70440;53.064;8.926;2023-10-13T12:57:15;1.30;;;0.80;;
80981;SDS011;70440;53.064;8.926;2023-10-13T12:59:42;1.30;;;0.88;;
80981;SDS011;70440;53.064;8.926;2023-10-13T13:02:07;1.35;;;0.88;;
80981;SDS011;70440;53.064;8.926;2023-10-13T13:04:39;1.85;;;1.08;;
80981;SDS011;70440;53.064;8.926;2023-10-13T13:07:09;1.65;;;1.00;;
80981;SDS011;70440;53.064;8.926;2023-10-13T13:09:38;1.95;;;0.98;;
80981;SDS011;70440;53.064;8.926;2023-10-13T13:12:04;1.33;;;0.80;;
80981;SDS011;70440;53.064;8.926;2023-10-13T13:14:31;1.60;;;1.10;;
80981;SDS011;70440;53.064;8.926;2023-10-13T13:17:08;1.08;;;0.70;;
80981;SDS011;70440;53.064;8.926;2023-10-13T13:19:34;1.30;;;0.70;;
80981;SDS011;70440;53.064;8.926;2023-10-13T13:22:04;1.15;;;0.98;;
80981;SDS011;70440;53.064;8.926;2023-10-13T13:24:36;2.10;;;1.30;;
80981;SDS011;70440;53.064;8.926;2023-10-13T13:29:39;2.17;;;0.88;;
80981;SDS011;70440;53.064;8.926;2023-10-13T13:32:10;1.80;;;0.90;;
80981;SDS011;70440;53.064;8.926;2023-10-13T13:34:44;1.23;;;1.13;;
80981;SDS011;70440;53.064;8.926;2023-10-13T13:37:13;0.68;;;0.60;;
80981;SDS011;70440;53.064;8.926;2023-10-13T13:39:44;2.95;;;1.33;;
80981;SDS011;70440;53.064;8.926;2023-10-13T13:42:10;1.08;;;0.98;;
80981;SDS011;70440;53.064;8.926;2023-10-13T13:44:42;1.63;;;0.82;;
80981;SDS011;70440;53.064;8.926;2023-10-13T13:47:14;2.28;;;1.20;;
80981;SDS011;70440;53.064;8.926;2023-10-13T13:49:42;1.75;;;0.80;;
80981;SDS011;70440;53.064;8.926;2023-10-13T13:52:29;2.88;;;1.08;;
80981;SDS011;70440;53.064;8.926;2023-10-13T13:55:01;2.08;;;1.20;;
80981;SDS011;70440;53.064;8.926;2023-10-13T13:57:31;2.17;;;1.10;;
80981;SDS011;70440;53.064;8.926;2023-10-13T13:59:56;1.55;;;1.15;;
80981;SDS011;70440;53.064;8.926;2023-10-13T14:02:25;2.80;;;1.27;;
80981;SDS011;70440;53.064;8.926;2023-10-13T14:04:53;2.15;;;1.42;;
80981;SDS011;70440;53.064;8.926;2023-10-13T14:07:18;2.70;;;1.50;;
80981;SDS011;70440;53.064;8.926;2023-10-13T14:09:45;1.45;;;0.82;;
80981;SDS011;70440;53.064;8.926;2023-10-13T14:12:16;1.40;;;1.00;;
80981;SDS011;70440;53.064;8.926;2023-10-13T14:14:57;1.70;;;1.00;;
80981;SDS011;70440;53.064;8.926;2023-10-13T14:17:32;1.10;;;0.82;;
80981;SDS011;70440;53.064;8.926;2023-10-13T14:20:06;1.52;;;0.75;;
80981;SDS011;70440;53.064;8.926;2023-10-13T14:22:40;1.90;;;1.42;;
80981;SDS011;70440;53.064;8.926;2023-10-13T14:25:06;2.25;;;1.05;;
80981;SDS011;70440;53.064;8.926;2023-10-13T14:27:34;1.85;;;1.08;;
80981;SDS011;70440;53.064;8.926;2023-10-13T14:30:03;2.58;;;1.50;;
80981;SDS011;70440;53.064;8.926;2023-10-13T14:32:31;2.08;;;1.67;;
80981;SDS011;70440;53.064;8.926;2023-10-13T14:35:05;1.55;;;1.17;;
80981;SDS011;70440;53.064;8.926;2023-10-13T14:37:45;2.72;;;1.40;;
80981;SDS011;70440;53.064;8.926;2023-10-13T14:40:11;1.65;;;1.20;;
80981;SDS011;70440;53.064;8.926;2023-10-13T14:42:40;2.15;;;1.77;;
80981;SDS011;70440;53.064;8.926;2023-10-13T14:45:06;2.80;;;1.70;;
80981;SDS011;70440;53.064;8.926;2023-10-13T14:47:38;1.67;;;1.02;;
80981;SDS011;70440;53.064;8.926;2023-10-13T14:50:06;3.13;;;1.50;;
80981;SDS011;70440;53.064;8.926;2023-10-13T14:52:33;2.47;;;1.05;;
80981;SDS011;70440;53.064;8.926;2023-10-13T14:54:59;1.88;;;0.85;;
80981;SDS011;70440;53.064;8.926;2023-10-13T14:57:24;1.08;;;0.98;;
80981;SDS011;70440;53.064;8.926;2023-10-13T14:59:59;1.83;;;1.00;;
80981;SDS011;70440;53.064;8.926;2023-10-13T15:02:33;1.27;;;0.80;;
80981;SDS011;70440;53.064;8.926;2023-10-13T15:05:01;1.55;;;1.02;;
80981;SDS011;70440;53.064;8.926;2023-10-13T15:07:27;1.52;;;1.13;;
80981;SDS011;70440;53.064;8.926;2023-10-13T15:09:52;1.40;;;1.30;;
80981;SDS011;70440;53.064;8.926;2023-10-13T15:12:21;2.47;;;1.63;;
80981;SDS011;70440;53.064;8.926;2023-10-13T15:14:47;1.38;;;0.90;;
80981;SDS011;70440;53.064;8.926;2023-10-13T15:17:12;1.95;;;1.20;;
80981;SDS011;70440;53.064;8.926;2023-10-13T15:19:41;1.85;;;0.90;;
80981;SDS011;70440;53.064;8.926;2023-10-13T15:22:08;2.67;;;1.58;;
80981;SDS011;70440;53.064;8.926;2023-10-13T15:24:44;2.75;;;1.00;;
80981;SDS011;70440;53.064;8.926;2023-10-13T15:27:30;1.98;;;0.80;;
80981;SDS011;70440;53.064;8.926;2023-10-13T15:29:57;1.85;;;0.90;;
80981;SDS011;70440;53.064;8.926;2023-10-13T15:32:27;4.88;;;1.25;;
80981;SDS011;70440;53.064;8.926;2023-10-13T15:35:07;1.63;;;1.13;;
80981;SDS011;70440;53.064;8.926;2023-10-13T15:37:37;2.80;;;1.33;;
80981;SDS011;70440;53.064;8.926;2023-10-13T15:40:03;2.17;;;1.20;;
80981;SDS011;70440;53.064;8.926;2023-10-13T15:42:32;2.47;;;0.82;;
80981;SDS011;70440;53.064;8.926;2023-10-13T15:44:57;2.45;;;1.42;;
80981;SDS011;70440;53.064;8.926;2023-10-13T15:47:23;1.17;;;1.08;;
80981;SDS011;70440;53.064;8.926;2023-10-13T15:49:48;2.05;;;0.98;;
80981;SDS011;70440;53.064;8.926;2023-10-13T15:52:13;2.00;;;1.50;;
80981;SDS011;70440;53.064;8.926;2023-10-13T15:54:40;1.27;;;0.88;;
80981;SDS011;70440;53.064;8.926;2023-10-13T15:57:07;3.53;;;1.15;;
80981;SDS011;70440;53.064;8.926;2023-10-13T15:59:36;1.38;;;0.90;;
80981;SDS011;70440;53.064;8.926;2023-10-13T16:02:01;1.52;;;0.80;;
80981;SDS011;70440;53.064;8.926;2023-10-13T16:04:32;3.85;;;1.48;;
80981;SDS011;70440;53.064;8.926;2023-10-13T16:07:00;2.50;;;1.25;;
80981;SDS011;70440;53.064;8.926;2023-10-13T16:12:01;1.48;;;1.02;;